Flight Track Log - Related Links

Times and Time Zones

All times are in EDT time to prevent confusion due to time zone crossing. See the UAE179 flight status page for this flight to view local times or setup timezone preferences in your user account.

Time Position Orientation Groundspeed Altitude Reporting Facility
EDT Latitude Longitude Course Direction KTS MPH feet Rate Location/Type
Sun 11:51:00 PM 25.3912 55.2680 325° Northwest  Level Estimated
Sun 11:53:00 PM 25.4407 55.2308 325° Northwest  Level Estimated
Sun 11:54:00 PM 25.5280 55.1633 325° Northwest  Level Estimated
Sun 11:55:00 PM 25.6153 55.0957 325° Northwest  Level Estimated
Sun 11:56:00 PM 25.7026 55.0281 325° Northwest  Level Estimated
Sun 11:57:27 PM 25.2510 55.3750 306° West 84 97  Level FlightAware
Sun 11:57:53 PM 25.2590 55.3600 301° West 175 201 1,149 Level FlightAware
Sun 11:58:14 PM 25.2690 55.3430 303° West 176 203 900 2,595 Climbing FlightAware
Sun 11:58:30 PM 25.2750 55.3310 299° West 169 194 1,600 1,500 Climbing FlightAware
Sun 11:58:50 PM 25.2840 55.3160 304° West 191 220 1,800 600 Climbing FlightAware
Sun 11:59:10 PM 25.2940 55.2980 302° West 209 241 2,000 833 Climbing FlightAware
Sun 11:59:26 PM 25.3030 55.2820 302° West 228 262 2,300 1,500 Climbing FlightAware
Sun 11:59:46 PM 25.3140 55.2620 301° West 235 270 2,900 2,000 Climbing FlightAware
Mon 12:00:05 AM 25.3250 55.2410 300° West 241 277 3,600 2,341 Climbing FlightAware
Mon 12:00:27 AM 25.3370 55.2180 300° West 242 278 4,500 2,364 Climbing FlightAware
Mon 12:00:38 AM 25.3430 55.2060 299° West 240 276 4,900 2,100 Climbing FlightAware
Mon 12:00:47 AM 25.3460 55.1960 288° West 241 277 5,200 2,000 Climbing FlightAware
Mon 12:00:53 AM 25.3470 55.1880 278° West 243 280 5,400 1,286 Climbing FlightAware
Mon 12:01:15 AM 25.3430 55.1610 261° West 261 300 5,800 1,565 Climbing FlightAware
Mon 12:01:39 AM 25.3360 55.1280 257° West 273 314 6,600 1,953 Climbing FlightAware
Mon 12:01:58 AM 25.3310 55.1020 258° West 277 319 7,200 2,100 Climbing FlightAware
Mon 12:02:19 AM 25.3260 55.0710 260° West 284 327 8,000 1,784 Climbing FlightAware
Mon 12:02:35 AM 25.3210 55.0480 256° West 298 343 8,300 1,200 Climbing FlightAware
Mon 12:02:44 AM 25.3200 55.0350 265° West 309 356 8,500 1,688 Climbing FlightAware
Mon 12:03:07 AM 25.3280 54.9980 283° West 317 365 9,200 1,915 Climbing FlightAware
Mon 12:03:31 AM 25.3380 54.9600 286° West 328 377 10,000 1,474 Climbing FlightAware
Mon 12:04:04 AM 25.3520 54.9060 286° West 351 404 10,600 923 Climbing FlightAware
Mon 12:04:36 AM 25.3650 54.8510 285° West 381 438 11,000 1,164 Climbing FlightAware
Mon 12:05:11 AM 25.3830 54.7790 285° West 403 464 11,900 2,108 Climbing FlightAware
Mon 12:05:50 AM 25.4030 54.7010 286° West 396 456 13,600 2,480 Climbing FlightAware
Mon 12:06:26 AM 25.4190 54.6350 285° West 388 447 15,000 2,087 Climbing FlightAware
Mon 12:06:59 AM 25.4360 54.5680 286° West 392 451 16,000 1,765 Climbing FlightAware
Mon 12:07:34 AM 25.4520 54.5010 285° West 396 456 17,000 1,481 Climbing FlightAware
Mon 12:08:16 AM 25.4710 54.4210 285° West 403 464 17,900 1,421 Climbing FlightAware
Mon 12:08:50 AM 25.4890 54.3510 286° West 407 468 18,800 1,543 Climbing FlightAware
Mon 12:09:26 AM 25.5060 54.2780 284° West 411 473 19,700 1,658 Climbing FlightAware
Mon 12:10:06 AM 25.5260 54.1970 285° West 409 471 20,900 1,280 Climbing FlightAware
Mon 12:10:41 AM 25.5440 54.1220 285° West 423 487 21,300 1,054 Climbing FlightAware
Mon 12:11:20 AM 25.5640 54.0390 285° West 428 493 22,200 1,268 Climbing FlightAware
Mon 12:11:52 AM 25.5790 53.9790 286° West 429 494 22,800 1,164 Climbing FlightAware
Mon 12:12:27 AM 25.6040 53.9010 290° West 433 498 23,500 1,000 Climbing FlightAware
Mon 12:12:58 AM 25.6260 53.8330 290° West 440 506 23,900 794 Climbing FlightAware
Mon 12:13:35 AM 25.6520 53.7570 291° West 446 513 24,400 947 Climbing FlightAware
Mon 12:14:14 AM 25.6810 53.6710 291° West 449 517 25,100 1,040 Climbing FlightAware
Mon 12:14:50 AM 25.7070 53.5920 290° West 454 522 25,700 985 Climbing FlightAware
Mon 12:15:21 AM 25.7300 53.5240 291° West 457 526 26,200 923 Climbing FlightAware
Mon 12:15:55 AM 25.7540 53.4520 290° West 459 528 26,700 986 Climbing FlightAware
Mon 12:16:34 AM 25.7820 53.3660 290° West 462 532 27,400 930 Climbing FlightAware
Mon 12:17:06 AM 25.8070 53.2920 291° West 465 535 27,800 696 Climbing FlightAware
Mon 12:17:43 AM 25.8340 53.2100 290° West 469 540 28,200 701 Climbing FlightAware
Mon 12:18:23 AM 25.8680 53.1210 293° West 473 544 28,700 701 Climbing FlightAware
Mon 12:19:00 AM 25.9020 53.0380 294° West 480 552 29,100 649 Climbing FlightAware
Mon 12:19:37 AM 25.9360 52.9540 294° West 484 557 29,500 609 Climbing FlightAware
Mon 12:20:09 AM 25.9660 52.8810 295° West 486 559 29,800 696 Climbing FlightAware
Mon 12:20:46 AM 26.0000 52.7970 294° West 486 559 30,300 833 Climbing FlightAware
Mon 12:21:21 AM 26.0320 52.7180 294° West 487 560 30,800 896 Climbing FlightAware
Mon 12:21:53 AM 26.0650 52.6450 297° West 485 558 31,300 870 Climbing FlightAware
Mon 12:22:30 AM 26.1010 52.5670 297° West 486 559 31,800 783 Climbing FlightAware
Mon 12:23:02 AM 26.1340 52.4940 297° West 485 558 32,200 935 Climbing FlightAware
Mon 12:23:47 AM 26.1800 52.3920 297° West 486 559 33,000 1,024 Climbing FlightAware
Mon 12:24:24 AM 26.2160 52.3120 297° West 482 555 33,600 1,029 Climbing FlightAware
Mon 12:24:57 AM 26.2490 52.2370 296° West 479 551 34,200 1,075 Climbing FlightAware
Mon 12:25:31 AM 26.2860 52.1670 301° West 478 550 34,800 1,043 Climbing FlightAware
Mon 12:26:06 AM 26.3280 52.0910 302° West 476 548 35,400 1,059 Climbing FlightAware
Mon 12:26:39 AM 26.3660 52.0220 302° West 474 545 36,000 923 Climbing FlightAware
Mon 12:27:24 AM 26.4170 51.9300 302° West 473 544 36,600 837 Climbing FlightAware
Mon 12:28:05 AM 26.4630 51.8450 301° West 469 540 37,200 651 Climbing FlightAware
Mon 12:28:47 AM 26.5060 51.7670 302° West 472 543 37,500 525 Climbing FlightAware
Mon 12:29:25 AM 26.5520 51.6830 301° West 473 544 37,900 435 Climbing FlightAware
Mon 12:29:56 AM 26.5900 51.6140 302° West 476 548 38,000 92 Climbing FlightAware
Mon 12:30:30 AM 26.6300 51.5400 301° West 476 548 38,000  Level FlightAware
Mon 12:31:05 AM 26.6710 51.4650 301° West 474 545 38,000  Level FlightAware
Mon 12:31:45 AM 26.7090 51.3960 302° West 472 543 38,000  Level FlightAware
Mon 12:32:22 AM 26.7580 51.3050 301° West 474 545 38,000  Level FlightAware
Mon 12:32:58 AM 26.7980 51.2320 302° West 474 545 38,000  Level FlightAware
Mon 12:33:37 AM 26.8450 51.1460 302° West 473 544 38,000  Level FlightAware
Mon 12:34:22 AM 26.8890 51.0640 301° West 472 543 38,000  Level FlightAware
Mon 12:34:58 AM 26.9350 50.9790 301° West 473 544 38,000  Level FlightAware
Mon 12:35:33 AM 26.9750 50.9050 301° West 473 544 38,000  Level FlightAware
Mon 12:36:08 AM 27.0140 50.8320 301° West 473 544 38,000  Level FlightAware
Mon 12:36:59 AM 27.0660 50.7330 301° West 474 545 38,000  Level FlightAware
Mon 12:37:33 AM 27.1100 50.6530 302° West 474 545 38,000  Level FlightAware
Mon 12:38:24 AM 27.1600 50.5580 301° West 474 545 38,000  Level FlightAware
Mon 12:39:00 AM 27.1930 50.4920 299° West 474 545 38,000  Level FlightAware
Mon 12:39:36 AM 27.2270 50.4270 300° West 474 545 38,000  Level FlightAware
Mon 12:40:12 AM 27.2610 50.3620 300° West 474 545 38,000  Level FlightAware
Mon 12:40:48 AM 27.2940 50.2960 299° West 474 545 38,000  Level FlightAware
Mon 12:41:24 AM 27.3280 50.2310 301° West 474 545 38,000  Level FlightAware
Mon 12:42:00 AM 27.3610 50.1660 300° West 474 545 38,000  Level FlightAware
Mon 12:42:36 AM 27.3950 50.1000 300° West 474 545 38,000  Level FlightAware
Mon 12:43:12 AM 27.4280 50.0350 300° West 474 545 38,000  Level FlightAware
Mon 12:43:48 AM 27.4620 49.9690 300° West 474 545 38,000  Level FlightAware
Mon 12:44:24 AM 27.4950 49.9040 300° West 474 545 38,000  Level FlightAware
Mon 12:45:03 AM 27.6100 49.7130 304° West 464 534 38,000  Level FlightAware
Mon 12:45:33 AM 27.6450 49.6560 305° West 464 534 38,000  Level FlightAware
Mon 12:46:09 AM 27.6830 49.5950 305° West 464 534 38,000  Level FlightAware
Mon 12:46:45 AM 27.7210 49.5340 305° West 464 534 38,000  Level FlightAware
Mon 12:47:21 AM 27.7580 49.4730 304° West 464 534 38,000  Level FlightAware
Mon 12:47:58 AM 27.7970 49.4110 305° West 464 534 38,000  Level FlightAware
Mon 12:48:34 AM 27.8350 49.3500 305° West 464 534 38,000  Level FlightAware
Mon 12:49:10 AM 27.8720 49.2890 304° West 464 534 38,000  Level FlightAware
Mon 12:49:46 AM 27.9100 49.2280 305° West 464 534 38,000  Level FlightAware
Mon 12:50:22 AM 27.9480 49.1670 305° West 464 534 38,000  Level FlightAware
Mon 12:50:58 AM 27.9850 49.1060 304° West 464 534 38,000  Level FlightAware
Mon 12:51:34 AM 28.0230 49.0450 305° West 464 534 38,000  Level FlightAware
Mon 12:52:11 AM 28.0620 48.9830 305° West 464 534 38,000  Level FlightAware
Mon 12:52:47 AM 28.0990 48.9220 305° West 464 534 38,000  Level FlightAware
Mon 12:53:33 AM 28.1480 48.8440 305° West 464 534 38,000  Level FlightAware
Mon 12:54:10 AM 28.1860 48.7810 304° West 464 534 38,000  Level FlightAware
Mon 12:54:46 AM 28.2240 48.7200 305° West 464 534 38,000  Level FlightAware
Mon 12:57:00 AM 28.4115 48.5813 327° Northwest  Level Estimated
Mon 12:58:00 AM 28.4954 48.5190 327° Northwest  Level Estimated
Mon 12:59:00 AM 28.5793 48.4566 327° Northwest  Level Estimated
Mon 01:00:00 AM 28.6632 48.3942 327° Northwest  Level Estimated
Mon 01:01:00 AM 28.7470 48.3316 327° Northwest  Level Estimated
Mon 01:02:00 AM 28.8308 48.2689 327° Northwest  Level Estimated
Mon 01:03:00 AM 28.9146 48.2062 327° Northwest  Level Estimated
Mon 01:04:00 AM 28.9983 48.1433 327° Northwest  Level Estimated
Mon 01:05:00 AM 29.0821 48.0803 327° Northwest  Level Estimated
Mon 01:06:00 AM 29.1658 48.0173 327° Northwest  Level Estimated
Mon 01:07:00 AM 29.2494 47.9541 327° Northwest  Level Estimated
Mon 01:08:00 AM 29.3330 47.8908 327° Northwest  Level Estimated
Mon 01:09:00 AM 29.4166 47.8274 327° Northwest  Level Estimated
Mon 01:10:00 AM 29.5002 47.7639 327° Northwest  Level Estimated
Mon 01:11:00 AM 29.5837 47.7003 326° Northwest  Level Estimated
Mon 01:12:00 AM 29.6673 47.6366 326° Northwest  Level Estimated
Mon 01:13:00 AM 29.7507 47.5728 326° Northwest  Level Estimated
Mon 01:14:00 AM 29.8342 47.5089 326° Northwest  Level Estimated
Mon 01:15:00 AM 29.9176 47.4449 326° Northwest  Level Estimated
Mon 01:16:00 AM 30.0010 47.3808 326° Northwest  Level Estimated
Mon 01:17:00 AM 30.0843 47.3166 326° Northwest  Level Estimated
Mon 01:18:00 AM 30.1677 47.2522 326° Northwest  Level Estimated
Mon 01:19:00 AM 30.2509 47.1878 326° Northwest  Level Estimated
Mon 01:20:00 AM 30.3342 47.1232 326° Northwest  Level Estimated
Mon 01:21:00 AM 30.4174 47.0585 326° Northwest  Level Estimated
Mon 01:22:00 AM 30.5006 46.9938 326° Northwest  Level Estimated
Mon 01:23:00 AM 30.5838 46.9289 326° Northwest  Level Estimated
Mon 01:24:00 AM 30.6669 46.8639 326° Northwest  Level Estimated
Mon 01:25:00 AM 30.7500 46.7988 326° Northwest  Level Estimated
Mon 01:26:00 AM 30.8331 46.7335 326° Northwest  Level Estimated
Mon 01:27:00 AM 30.9161 46.6682 326° Northwest  Level Estimated
Mon 01:28:00 AM 30.9991 46.6027 326° Northwest  Level Estimated
Mon 01:29:00 AM 31.0821 46.5372 326° Northwest  Level Estimated
Mon 01:30:00 AM 31.1650 46.4715 326° Northwest  Level Estimated
Mon 01:31:00 AM 31.2479 46.4057 326° Northwest  Level Estimated
Mon 01:32:00 AM 31.3308 46.3398 326° Northwest  Level Estimated
Mon 01:32:02 AM 32.2220 45.5440 326° Northwest 430 495 38,000  Level FlightAware
Mon 01:32:38 AM 32.2760 45.4860 318° Northwest 430 495 38,000  Level FlightAware
Mon 01:33:27 AM 32.3380 45.4170 317° Northwest 430 495 38,000  Level FlightAware
Mon 01:34:01 AM 32.3950 45.3560 318° Northwest 428 493 38,000  Level FlightAware
Mon 01:34:37 AM 32.4480 45.2990 318° Northwest 427 491 38,000  Level FlightAware
Mon 01:35:09 AM 32.4950 45.2470 317° Northwest 425 489 38,000  Level FlightAware
Mon 01:35:46 AM 32.5480 45.1890 317° Northwest 425 489 38,000  Level FlightAware
Mon 01:36:24 AM 32.6040 45.1270 317° Northwest 428 493 38,000  Level FlightAware
Mon 01:36:57 AM 32.6550 45.0800 322° Northwest 436 502 38,000  Level FlightAware
Mon 01:37:31 AM 32.7150 45.0380 330° Northwest 444 511 38,000  Level FlightAware
Mon 01:38:09 AM 32.7860 44.9960 334° Northwest 447 514 38,000  Level FlightAware
Mon 01:38:42 AM 32.8480 44.9590 333° Northwest 448 516 38,000  Level FlightAware
Mon 01:39:17 AM 32.9110 44.9210 333° Northwest 449 517 38,000  Level FlightAware
Mon 01:39:53 AM 32.9780 44.8800 333° Northwest 449 517 38,000  Level FlightAware
Mon 01:40:27 AM 33.0410 44.8410 333° Northwest 447 514 38,000  Level FlightAware
Mon 01:41:03 AM 33.1070 44.8010 333° Northwest 446 513 38,000  Level FlightAware
Mon 01:41:39 AM 33.1720 44.7610 333° Northwest 445 512 38,000  Level FlightAware
Mon 01:42:11 AM 33.2320 44.7280 335° Northwest 452 520 38,000  Level FlightAware
Mon 01:42:47 AM 33.3060 44.6990 342° North 458 527 38,000  Level FlightAware
Mon 01:43:25 AM 33.3820 44.6720 343° North 456 525 38,000  Level FlightAware
Mon 01:43:57 AM 33.4470 44.6480 343° North 456 525 38,000  Level FlightAware
Mon 01:44:32 AM 33.5190 44.6220 343° North 455 524 38,000  Level FlightAware
Mon 01:45:09 AM 33.5890 44.5890 339° North 449 517 38,000  Level FlightAware
Mon 01:45:41 AM 33.6500 44.5590 338° Northwest 451 519 38,000  Level FlightAware
Mon 01:46:16 AM 33.7180 44.5260 338° Northwest 451 519 38,000  Level FlightAware
Mon 01:46:55 AM 33.7940 44.4890 338° Northwest 449 517 38,000  Level FlightAware
Mon 01:47:27 AM 33.8560 44.4580 337° Northwest 449 517 38,000  Level FlightAware
Mon 01:48:03 AM 33.9250 44.4240 338° Northwest 450 518 38,000  Level FlightAware
Mon 01:48:39 AM 33.9940 44.3900 338° Northwest 447 514 38,000  Level FlightAware
Mon 01:49:14 AM 34.0620 44.3560 338° Northwest 447 514 38,000  Level FlightAware
Mon 01:49:46 AM 34.1230 44.3260 338° Northwest 445 512 38,000  Level FlightAware
Mon 01:50:22 AM 34.1910 44.2920 338° Northwest 444 511 38,000  Level FlightAware
Mon 01:50:58 AM 34.2590 44.2590 338° Northwest 444 511 38,000  Level FlightAware
Mon 01:51:34 AM 34.3280 44.2240 337° Northwest 446 513 38,000  Level FlightAware
Mon 01:52:07 AM 34.3880 44.1940 338° Northwest 446 513 38,000  Level FlightAware
Mon 01:52:44 AM 34.4580 44.1590 338° Northwest 446 513 38,000  Level FlightAware
Mon 01:53:37 AM 34.5540 44.1100 337° Northwest 446 513 38,000  Level FlightAware
Mon 01:54:13 AM 34.6120 44.0800 337° Northwest 446 513 38,000  Level FlightAware
Mon 01:54:50 AM 34.6720 44.0490 337° Northwest 446 513 38,000  Level FlightAware
Mon 01:55:26 AM 34.7300 44.0190 337° Northwest 446 513 38,000  Level FlightAware
Mon 01:56:01 AM 34.8290 43.9660 336° Northwest 438 504 38,000  Level FlightAware
Mon 01:56:31 AM 34.8850 43.9360 336° Northwest 438 504 38,000  Level FlightAware
Mon 01:57:19 AM 34.9620 43.8940 336° Northwest 437 503 38,000  Level FlightAware
Mon 01:57:56 AM 35.0210 43.8630 337° Northwest 437 503 38,000  Level FlightAware
Mon 01:58:40 AM 35.1190 43.8110 337° Northwest 438 504 38,000  Level FlightAware
Mon 01:59:13 AM 35.1870 43.7760 337° Northwest 442 509 38,000  Level FlightAware
Mon 01:59:47 AM 35.2530 43.7410 337° Northwest 445 512 38,000  Level FlightAware
Mon 02:00:41 AM 35.3460 43.6910 336° Northwest 445 512 38,000  Level FlightAware
Mon 02:01:17 AM 35.4040 43.6590 336° Northwest 445 512 38,000  Level FlightAware
Mon 02:01:53 AM 35.4610 43.6280 336° Northwest 445 512 38,000  Level FlightAware
Mon 02:02:30 AM 35.5200 43.5960 336° Northwest 445 512 38,000  Level FlightAware
Mon 02:03:06 AM 35.5780 43.5640 336° Northwest 445 512 38,000  Level FlightAware
Mon 02:03:42 AM 35.6350 43.5330 336° Northwest 445 512 38,000  Level FlightAware
Mon 02:04:18 AM 35.6930 43.5010 336° Northwest 445 512 38,000  Level FlightAware
Mon 02:04:54 AM 35.7510 43.4690 336° Northwest 445 512 38,000  Level FlightAware
Mon 02:05:30 AM 35.8080 43.4380 336° Northwest 445 512 38,000  Level FlightAware
Mon 02:06:06 AM 35.8660 43.4060 336° Northwest 445 512 38,000  Level FlightAware
Mon 02:06:43 AM 35.9250 43.3740 336° Northwest 445 512 38,000  Level FlightAware
Mon 02:07:19 AM 35.9820 43.3420 336° Northwest 445 512 38,000  Level FlightAware
Mon 02:07:55 AM 36.0400 43.3100 336° Northwest 445 512 38,000  Level FlightAware
Mon 02:08:31 AM 36.0970 43.2790 336° Northwest 445 512 38,000  Level FlightAware
Mon 02:09:08 AM 36.1570 43.2460 336° Northwest 445 512 38,000  Level FlightAware
Mon 02:09:44 AM 36.2140 43.2140 336° Northwest 445 512 38,000 27 Level FlightAware
Mon 02:12:00 AM 36.3939 43.0419 322° Northwest  Level Estimated
Mon 02:13:00 AM 36.4731 42.9658 322° Northwest  Level Estimated
Mon 02:14:00 AM 36.5524 42.8895 322° Northwest  Level Estimated
Mon 02:15:00 AM 36.6316 42.8130 322° Northwest  Level Estimated
Mon 02:16:00 AM 36.7107 42.7364 322° Northwest  Level Estimated
Mon 02:17:00 AM 36.7898 42.6596 322° Northwest  Level Estimated
Mon 02:18:00 AM 36.8688 42.5826 322° Northwest  Level Estimated
Mon 02:19:00 AM 36.9478 42.5055 322° Northwest  Level Estimated
Mon 02:20:00 AM 37.0267 42.4282 322° Northwest  Level Estimated
Mon 02:21:00 AM 37.1056 42.3508 322° Northwest  Level Estimated
Mon 02:22:00 AM 37.1844 42.2732 322° Northwest  Level Estimated
Mon 02:23:00 AM 37.2632 42.1955 322° Northwest  Level Estimated
Mon 02:24:00 AM 37.3419 42.1176 322° Northwest  Level Estimated
Mon 02:25:00 AM 37.4206 42.0395 322° Northwest  Level Estimated
Mon 02:26:00 AM 37.4992 41.9612 322° Northwest  Level Estimated
Mon 02:27:00 AM 37.5778 41.8828 322° Northwest  Level Estimated
Mon 02:28:00 AM 37.6563 41.8043 322° Northwest  Level Estimated
Mon 02:29:00 AM 37.7348 41.7255 322° Northwest  Level Estimated
Mon 02:30:00 AM 37.8132 41.6466 322° Northwest  Level Estimated
Mon 02:31:00 AM 37.8916 41.5676 321° Northwest  Level Estimated
Mon 02:32:00 AM 37.9699 41.4883 321° Northwest  Level Estimated
Mon 02:33:00 AM 38.0482 41.4089 321° Northwest  Level Estimated
Mon 02:34:00 AM 38.1264 41.3293 321° Northwest  Level Estimated
Mon 02:35:00 AM 38.2045 41.2496 321° Northwest  Level Estimated
Mon 02:36:00 AM 38.2826 41.1697 321° Northwest  Level Estimated
Mon 02:37:00 AM 38.3607 41.0896 321° Northwest  Level Estimated
Mon 02:38:00 AM 38.4387 41.0093 321° Northwest  Level Estimated
Mon 02:39:00 AM 38.5166 40.9289 321° Northwest  Level Estimated
Mon 02:40:00 AM 38.5945 40.8483 321° Northwest  Level Estimated
Mon 02:41:00 AM 38.6723 40.7675 321° Northwest  Level Estimated
Mon 02:42:00 AM 38.7501 40.6865 321° Northwest  Level Estimated
Mon 02:43:00 AM 38.8278 40.6054 321° Northwest  Level Estimated
Mon 02:44:00 AM 38.9054 40.5240 321° Northwest  Level Estimated
Mon 02:45:00 AM 38.9830 40.4425 321° Northwest  Level Estimated
Mon 02:46:00 AM 39.0606 40.3609 321° Northwest  Level Estimated
Mon 02:47:00 AM 39.1381 40.2790 321° Northwest  Level Estimated
Mon 02:48:00 AM 39.2155 40.1970 321° Northwest  Level Estimated
Mon 02:49:00 AM 39.2929 40.1147 321° Northwest  Level Estimated
Mon 02:50:00 AM 39.3702 40.0323 321° Northwest  Level Estimated
Mon 02:51:00 AM 39.4474 39.9498 320° Northwest  Level Estimated
Mon 02:52:00 AM 39.5246 39.8670 320° Northwest  Level Estimated
Mon 02:53:00 AM 39.6018 39.7841 320° Northwest  Level Estimated
Mon 02:54:00 AM 39.6788 39.7009 320° Northwest  Level Estimated
Mon 02:55:00 AM 39.7559 39.6176 320° Northwest  Level Estimated
Mon 02:56:00 AM 39.8328 39.5341 320° Northwest  Level Estimated
Mon 02:57:00 AM 39.9097 39.4504 320° Northwest  Level Estimated
Mon 02:58:00 AM 39.9866 39.3665 320° Northwest  Level Estimated
Mon 02:59:00 AM 40.0633 39.2825 320° Northwest  Level Estimated
Mon 03:00:00 AM 40.1401 39.1982 320° Northwest  Level Estimated
Mon 03:01:00 AM 40.2167 39.1138 320° Northwest  Level Estimated
Mon 03:02:00 AM 40.2933 39.0291 320° Northwest  Level Estimated
Mon 03:03:00 AM 40.3698 38.9443 320° Northwest  Level Estimated
Mon 03:04:00 AM 40.4463 38.8592 320° Northwest  Level Estimated
Mon 03:05:00 AM 40.5227 38.7740 320° Northwest  Level Estimated
Mon 03:06:00 AM 40.5991 38.6886 320° Northwest  Level Estimated
Mon 03:07:00 AM 40.6753 38.6030 320° Northwest  Level Estimated
Mon 03:08:00 AM 40.7516 38.5172 320° Northwest  Level Estimated
Mon 03:09:00 AM 40.8277 38.4312 319° Northwest  Level Estimated
Mon 03:10:00 AM 40.9038 38.3450 319° Northwest  Level Estimated
Mon 03:11:00 AM 40.9807 38.2577 319° Northwest  Level Estimated
Mon 03:12:00 AM 41.0574 38.1701 319° Northwest  Level Estimated
Mon 03:13:00 AM 41.1342 38.0824 319° Northwest  Level Estimated
Mon 03:14:00 AM 41.2108 37.9944 319° Northwest  Level Estimated
Mon 03:15:00 AM 41.2874 37.9063 319° Northwest  Level Estimated
Mon 03:16:00 AM 41.3639 37.8179 319° Northwest  Level Estimated
Mon 03:17:00 AM 41.4403 37.7294 319° Northwest  Level Estimated
Mon 03:18:00 AM 41.5167 37.6406 319° Northwest  Level Estimated
Mon 03:19:00 AM 41.5930 37.5516 319° Northwest  Level Estimated
Mon 03:20:00 AM 41.6693 37.4624 319° Northwest  Level Estimated
Mon 03:21:00 AM 41.7454 37.3730 319° Northwest  Level Estimated
Mon 03:22:00 AM 41.8215 37.2834 319° Northwest  Level Estimated
Mon 03:23:00 AM 41.8976 37.1935 319° Northwest  Level Estimated
Mon 03:24:00 AM 41.9735 37.1035 319° Northwest  Level Estimated
Mon 03:24:12 AM 42.0770 35.0050 319° Northwest 410 472 40,000  Level FlightAware
Mon 03:24:47 AM 42.1230 34.9470 317° Northwest 408 470 40,000  Level FlightAware
Mon 03:25:33 AM 42.1820 34.8710 316° Northwest 408 470 40,000  Level FlightAware
Mon 03:26:10 AM 42.2240 34.8160 316° Northwest 408 470 40,000  Level FlightAware
Mon 03:27:02 AM 42.3030 34.7150 317° Northwest 408 470 40,000  Level FlightAware
Mon 03:27:42 AM 42.3200 34.6920 315° West 408 470 40,000  Level FlightAware
Mon 03:28:19 AM 42.3630 34.6370 317° Northwest 408 470 40,000  Level FlightAware
Mon 03:28:55 AM 42.4040 34.5820 315° West 408 470 40,000  Level FlightAware
Mon 03:29:30 AM 42.5060 34.4500 316° Northwest 402 463 40,000  Level FlightAware
Mon 03:30:15 AM 42.5650 34.3730 316° Northwest 402 463 40,000  Level FlightAware
Mon 03:30:50 AM 42.6140 34.3080 316° Northwest 405 466 40,000  Level FlightAware
Mon 03:31:25 AM 42.6600 34.2470 316° Northwest 406 467 40,000  Level FlightAware
Mon 03:32:00 AM 42.7080 34.1840 316° Northwest 406 467 40,000  Level FlightAware
Mon 03:32:35 AM 42.7550 34.1210 315° West 406 467 40,000  Level FlightAware
Mon 03:33:10 AM 42.8040 34.0610 318° Northwest 409 471 40,000  Level FlightAware
Mon 03:33:45 AM 42.8540 34.0040 320° Northwest 411 473 40,000  Level FlightAware
Mon 03:34:20 AM 42.9060 33.9460 321° Northwest 412 474 40,000  Level FlightAware
Mon 03:34:55 AM 42.9570 33.8870 320° Northwest 413 475 40,000  Level FlightAware
Mon 03:35:30 AM 43.0080 33.8290 320° Northwest 413 475 40,000  Level FlightAware
Mon 03:36:06 AM 43.0600 33.7690 320° Northwest 414 476 40,000  Level FlightAware
Mon 03:36:40 AM 43.1110 33.7110 320° Northwest 415 478 40,000  Level FlightAware
Mon 03:37:10 AM 43.1550 33.6600 320° Northwest 415 478 40,000  Level FlightAware
Mon 03:37:45 AM 43.2070 33.6010 320° Northwest 415 478 40,000  Level FlightAware
Mon 03:38:20 AM 43.2580 33.5420 320° Northwest 415 478 40,000  Level FlightAware
Mon 03:38:55 AM 43.3090 33.4820 319° Northwest 413 475 40,000  Level FlightAware
Mon 03:39:30 AM 43.3600 33.4230 320° Northwest 412 474 40,000  Level FlightAware
Mon 03:40:10 AM 43.4180 33.3560 320° Northwest 412 474 40,000  Level FlightAware
Mon 03:40:45 AM 43.4690 33.2960 320° Northwest 413 475 40,000  Level FlightAware
Mon 03:41:20 AM 43.5200 33.2370 320° Northwest 415 478 40,000  Level FlightAware
Mon 03:41:55 AM 43.5710 33.1760 319° Northwest 415 478 40,000  Level FlightAware
Mon 03:42:30 AM 43.6220 33.1170 320° Northwest 415 478 40,000  Level FlightAware
Mon 03:43:05 AM 43.6730 33.0570 320° Northwest 415 478 40,000  Level FlightAware
Mon 03:43:40 AM 43.7230 32.9980 320° Northwest 414 476 40,000  Level FlightAware
Mon 03:44:15 AM 43.7750 32.9360 319° Northwest 414 476 40,000  Level FlightAware
Mon 03:44:50 AM 43.8250 32.8760 319° Northwest 414 476 40,000  Level FlightAware
Mon 03:45:30 AM 43.8840 32.8060 319° Northwest 414 476 40,000  Level FlightAware
Mon 03:46:00 AM 43.9260 32.7550 319° Northwest 416 479 40,000  Level FlightAware
Mon 03:46:35 AM 43.9770 32.6940 319° Northwest 415 478 40,000  Level FlightAware
Mon 03:47:10 AM 44.0280 32.6330 319° Northwest 415 478 40,000  Level FlightAware
Mon 03:47:45 AM 44.0790 32.5710 319° Northwest 416 479 40,000  Level FlightAware
Mon 03:48:20 AM 44.1300 32.5100 319° Northwest 417 480 40,000  Level FlightAware
Mon 03:48:55 AM 44.1810 32.4490 319° Northwest 417 480 40,000  Level FlightAware
Mon 03:49:30 AM 44.2330 32.3870 320° Northwest 419 482 40,000  Level FlightAware
Mon 03:50:05 AM 44.2850 32.3270 320° Northwest 420 483 40,000  Level FlightAware
Mon 03:50:40 AM 44.3360 32.2660 319° Northwest 419 482 40,000  Level FlightAware
Mon 03:51:15 AM 44.3880 32.2050 320° Northwest 420 483 40,000  Level FlightAware
Mon 03:51:50 AM 44.4400 32.1430 320° Northwest 421 484 40,000  Level FlightAware
Mon 03:52:30 AM 44.4990 32.0730 320° Northwest 422 486 40,000  Level FlightAware
Mon 03:53:00 AM 44.5440 32.0200 320° Northwest 420 483 40,000  Level FlightAware
Mon 03:53:35 AM 44.5940 31.9570 318° Northwest 418 481 40,000  Level FlightAware
Mon 03:54:10 AM 44.6440 31.8940 318° Northwest 419 482 40,000  Level FlightAware
Mon 03:54:45 AM 44.6950 31.8300 318° Northwest 420 483 40,000  Level FlightAware
Mon 03:55:20 AM 44.7450 31.7670 318° Northwest 419 482 40,000  Level FlightAware
Mon 03:56:00 AM 44.8030 31.6940 318° Northwest 418 481 40,000  Level FlightAware
Mon 03:56:30 AM 44.8460 31.6400 318° Northwest 415 478 40,000  Level FlightAware
Mon 03:57:05 AM 44.8960 31.5760 318° Northwest 412 474 40,000  Level FlightAware
Mon 03:57:41 AM 44.9420 31.5180 318° Northwest 410 472 40,000  Level FlightAware
Mon 03:58:15 AM 44.9940 31.4510 318° Northwest 407 468 40,000  Level FlightAware
Mon 03:58:50 AM 45.0420 31.3890 318° Northwest 406 467 40,000  Level FlightAware
Mon 03:59:25 AM 45.0880 31.3310 318° Northwest 406 467 40,000  Level FlightAware
Mon 04:00:08 AM 45.1510 31.2500 318° Northwest 408 470 40,000  Level FlightAware
Mon 04:00:43 AM 45.2000 31.1870 318° Northwest 409 471 40,000  Level FlightAware
Mon 04:01:18 AM 45.2480 31.1250 318° Northwest 410 472 40,000  Level FlightAware
Mon 04:01:53 AM 45.2980 31.0610 318° Northwest 411 473 40,000  Level FlightAware
Mon 04:02:33 AM 45.3560 30.9900 319° Northwest 409 471 40,000  Level FlightAware
Mon 04:03:03 AM 45.3980 30.9370 318° Northwest 402 463 40,000  Level FlightAware
Mon 04:03:38 AM 45.4410 30.8830 319° Northwest 397 457 40,000  Level FlightAware
Mon 04:04:14 AM 45.4940 30.8160 318° Northwest 396 456 40,000  Level FlightAware
Mon 04:04:48 AM 45.5400 30.7580 319° Northwest 395 455 40,000  Level FlightAware
Mon 04:05:23 AM 45.5900 30.6950 319° Northwest 395 455 40,000  Level FlightAware
Mon 04:05:58 AM 45.6370 30.6340 318° Northwest 395 455 40,000  Level FlightAware
Mon 04:06:33 AM 45.6800 30.5790 318° Northwest 395 455 40,000  Level FlightAware
Mon 04:07:08 AM 45.7320 30.5130 318° Northwest 398 458 40,000  Level FlightAware
Mon 04:07:48 AM 45.7870 30.4420 318° Northwest 398 458 40,000  Level FlightAware
Mon 04:08:23 AM 45.8340 30.3820 318° Northwest 395 455 40,000  Level FlightAware
Mon 04:09:03 AM 45.8890 30.3110 318° Northwest 393 452 40,000  Level FlightAware
Mon 04:09:33 AM 45.9300 30.2590 319° Northwest 391 450 40,000  Level FlightAware
Mon 04:10:08 AM 45.9770 30.1980 318° Northwest 390 449 40,000  Level FlightAware
Mon 04:10:48 AM 46.0300 30.1280 317° Northwest 390 449 40,000  Level FlightAware
Mon 04:11:23 AM 46.0640 30.0840 318° Northwest 389 448 40,000  Level FlightAware
Mon 04:11:59 AM 46.1250 30.0060 318° Northwest 388 447 40,000  Level FlightAware
Mon 04:12:35 AM 46.1710 29.9450 317° Northwest 389 448 40,000  Level FlightAware
Mon 04:13:05 AM 46.2120 29.8910 318° Northwest 390 449 40,000  Level FlightAware
Mon 04:13:40 AM 46.2590 29.8290 318° Northwest 392 451 40,000  Level FlightAware
Mon 04:14:15 AM 46.3060 29.7670 318° Northwest 394 453 40,000  Level FlightAware
Mon 04:14:50 AM 46.3500 29.7090 318° Northwest 395 455 40,000  Level FlightAware
Mon 04:15:25 AM 46.3970 29.6460 317° Northwest 394 453 40,000  Level FlightAware
Mon 04:16:00 AM 46.4450 29.5790 316° Northwest 393 452 40,000  Level FlightAware
Mon 04:16:35 AM 46.4880 29.5190 316° Northwest 394 453 40,000  Level FlightAware
Mon 04:17:07 AM 46.5280 29.4640 317° Northwest 393 452 40,000  Level FlightAware
Mon 04:17:47 AM 46.5860 29.3840 317° Northwest 394 453 40,000  Level FlightAware
Mon 04:18:22 AM 46.6310 29.3210 316° Northwest 396 456 40,000  Level FlightAware
Mon 04:18:57 AM 46.6780 29.2550 316° Northwest 395 455 40,000  Level FlightAware
Mon 04:19:32 AM 46.7220 29.1940 316° Northwest 396 456 40,000  Level FlightAware
Mon 04:20:07 AM 46.7670 29.1300 316° Northwest 396 456 40,000  Level FlightAware
Mon 04:20:43 AM 46.8150 29.0630 316° Northwest 397 457 40,000  Level FlightAware
Mon 04:21:18 AM 46.8620 28.9950 315° West 397 457 40,000  Level FlightAware
Mon 04:21:58 AM 46.9160 28.9180 316° Northwest 398 458 40,000  Level FlightAware
Mon 04:22:33 AM 46.9630 28.8530 317° Northwest 399 459 40,000  Level FlightAware
Mon 04:23:08 AM 47.0080 28.7930 318° Northwest 399 459 40,000  Level FlightAware
Mon 04:23:43 AM 47.0580 28.7260 318° Northwest 399 459 40,000  Level FlightAware
Mon 04:24:20 AM 47.1050 28.6620 317° Northwest 398 458 40,000  Level FlightAware
Mon 04:24:53 AM 47.1530 28.5970 317° Northwest 399 459 40,000  Level FlightAware
Mon 04:25:28 AM 47.1980 28.5350 317° Northwest 400 460 40,000  Level FlightAware
Mon 04:26:03 AM 47.2470 28.4680 317° Northwest 399 459 40,000  Level FlightAware
Mon 04:26:38 AM 47.2950 28.4020 317° Northwest 401 461 40,000  Level FlightAware
Mon 04:27:13 AM 47.3400 28.3400 317° Northwest 401 461 40,000  Level FlightAware
Mon 04:27:48 AM 47.3890 28.2730 317° Northwest 401 461 40,000  Level FlightAware
Mon 04:28:23 AM 47.4360 28.2070 316° Northwest 402 463 40,000  Level FlightAware
Mon 04:28:58 AM 47.4830 28.1430 317° Northwest 401 461 40,000  Level FlightAware
Mon 04:29:38 AM 47.5320 28.0740 316° Northwest 403 464 40,000  Level FlightAware
Mon 04:30:08 AM 47.5790 28.0080 317° Northwest 404 465 40,000  Level FlightAware
Mon 04:30:43 AM 47.6260 27.9420 317° Northwest 406 467 40,000  Level FlightAware
Mon 04:31:19 AM 47.6740 27.8750 317° Northwest 406 467 40,000  Level FlightAware
Mon 04:31:53 AM 47.7220 27.8080 317° Northwest 407 468 40,000  Level FlightAware
Mon 04:32:28 AM 47.7680 27.7430 316° Northwest 407 468 40,000  Level FlightAware
Mon 04:33:03 AM 47.8160 27.6750 316° Northwest 406 467 40,000  Level FlightAware
Mon 04:33:38 AM 47.8630 27.6080 316° Northwest 405 466 40,000  Level FlightAware
Mon 04:34:13 AM 47.9110 27.5410 317° Northwest 406 467 40,000  Level FlightAware
Mon 04:34:48 AM 47.9570 27.4750 316° Northwest 406 467 40,000  Level FlightAware
Mon 04:35:23 AM 48.0060 27.4050 316° Northwest 406 467 40,000  Level FlightAware
Mon 04:35:58 AM 48.0530 27.3380 316° Northwest 406 467 40,000  Level FlightAware
Mon 04:36:33 AM 48.1010 27.2690 316° Northwest 407 468 40,000  Level FlightAware
Mon 04:37:08 AM 48.1480 27.2000 316° Northwest 406 467 40,000  Level FlightAware
Mon 04:37:43 AM 48.1940 27.1340 316° Northwest 406 467 40,000  Level FlightAware
Mon 04:38:18 AM 48.2430 27.0630 316° Northwest 406 467 40,000  Level FlightAware
Mon 04:39:03 AM 48.3030 26.9760 316° Northwest 407 468 40,000  Level FlightAware
Mon 04:39:43 AM 48.3580 26.8960 316° Northwest 408 470 40,000  Level FlightAware
Mon 04:40:18 AM 48.4030 26.8300 316° Northwest 409 471 40,000  Level FlightAware
Mon 04:40:59 AM 48.4620 26.7460 317° Northwest 409 471 40,000  Level FlightAware
Mon 04:41:34 AM 48.5100 26.6780 317° Northwest 408 470 40,000  Level FlightAware
Mon 04:42:14 AM 48.5640 26.6010 317° Northwest 408 470 40,000  Level FlightAware
Mon 04:42:44 AM 48.6050 26.5420 316° Northwest 408 470 40,000  Level FlightAware
Mon 04:43:19 AM 48.6520 26.4750 317° Northwest 408 470 40,000  Level FlightAware
Mon 04:43:59 AM 48.7080 26.3950 317° Northwest 408 470 40,000  Level FlightAware
Mon 04:44:29 AM 48.7470 26.3380 316° Northwest 408 470 40,000  Level FlightAware
Mon 04:45:04 AM 48.7960 26.2680 317° Northwest 408 470 40,000  Level FlightAware
Mon 04:45:39 AM 48.8440 26.1990 317° Northwest 408 470 40,000  Level FlightAware
Mon 04:46:14 AM 48.8910 26.1300 316° Northwest 407 468 40,000  Level FlightAware
Mon 04:46:49 AM 48.9360 26.0650 317° Northwest 407 468 40,000  Level FlightAware
Mon 04:47:25 AM 48.9880 25.9880 316° Northwest 408 470 40,000  Level FlightAware
Mon 04:48:03 AM 49.0410 25.9120 317° Northwest 409 471 40,000  Level FlightAware
Mon 04:48:39 AM 49.0880 25.8430 316° Northwest 411 473 40,000  Level FlightAware
Mon 04:49:09 AM 49.1310 25.7790 316° Northwest 412 474 40,000  Level FlightAware
Mon 04:49:47 AM 49.1820 25.7030 316° Northwest 413 475 40,000  Level FlightAware
Mon 04:50:23 AM 49.2300 25.6330 316° Northwest 415 478 40,000  Level FlightAware
Mon 04:50:53 AM 49.2710 25.5720 316° Northwest 415 478 40,000  Level FlightAware
Mon 04:51:31 AM 49.3260 25.4900 316° Northwest 415 478 40,000  Level FlightAware
Mon 04:52:08 AM 49.3770 25.4140 316° Northwest 415 478 40,000  Level FlightAware
Mon 04:52:44 AM 49.4260 25.3420 316° Northwest 414 476 40,000  Level FlightAware
Mon 04:53:15 AM 49.4690 25.2780 316° Northwest 413 475 40,000  Level FlightAware
Mon 04:53:52 AM 49.5190 25.2020 315° West 414 476 40,000  Level FlightAware
Mon 04:54:26 AM 49.5670 25.1300 316° Northwest 415 478 40,000  Level FlightAware
Mon 04:55:04 AM 49.6170 25.0550 316° Northwest 415 478 40,000  Level FlightAware
Mon 04:55:36 AM 49.6620 24.9860 315° West 414 476 40,000  Level FlightAware
Mon 04:56:13 AM 49.7110 24.9100 315° West 415 478 40,000  Level FlightAware
Mon 04:56:47 AM 49.7590 24.8380 316° Northwest 414 476 40,000  Level FlightAware
Mon 04:57:19 AM 49.7990 24.7750 315° West 414 476 40,000  Level FlightAware
Mon 04:57:53 AM 49.8420 24.7090 315° West 413 475 40,000  Level FlightAware
Mon 04:58:34 AM 49.9010 24.6190 316° Northwest 412 474 40,000  Level FlightAware
Mon 04:59:04 AM 49.9420 24.5550 315° West 412 474 40,000  Level FlightAware
Mon 04:59:40 AM 49.9910 24.4780 315° West 411 473 40,000  Level FlightAware
Mon 05:00:18 AM 50.0410 24.4000 315° West 411 473 40,000  Level FlightAware
Mon 05:00:50 AM 50.0840 24.3340 315° West 411 473 40,000  Level FlightAware
Mon 05:01:26 AM 50.1320 24.2570 314° West 412 474 40,000  Level FlightAware
Mon 05:01:58 AM 50.1760 24.1890 315° West 412 474 40,000  Level FlightAware
Mon 05:02:36 AM 50.2260 24.1090 314° West 414 476 40,000  Level FlightAware
Mon 05:03:12 AM 50.2740 24.0330 315° West 415 478 40,000  Level FlightAware
Mon 05:03:48 AM 50.3220 23.9560 314° West 417 480 40,000  Level FlightAware
Mon 05:04:20 AM 50.3670 23.8850 315° West 418 481 40,000  Level FlightAware
Mon 05:04:56 AM 50.4160 23.8070 315° West 419 482 40,000  Level FlightAware
Mon 05:05:31 AM 50.4590 23.7310 312° West 418 481 40,000  Level FlightAware
Mon 05:06:06 AM 50.5050 23.6500 312° West 418 481 40,000  Level FlightAware
Mon 05:06:42 AM 50.5500 23.5690 311° West 417 480 40,000  Level FlightAware
Mon 05:07:18 AM 50.5970 23.4840 311° West 417 480 40,000  Level FlightAware
Mon 05:07:54 AM 50.6400 23.4090 312° West 418 481 40,000 -176 Level FlightAware
Mon 05:08:26 AM 50.6800 23.3370 311° West 420 483 39,800 -706 Descending FlightAware
Mon 05:09:02 AM 50.7290 23.2490 311° West 421 484 39,200 -1,000 Descending FlightAware
Mon 05:09:38 AM 50.7750 23.1670 312° West 423 487 38,600 -1,000 Descending FlightAware
Mon 05:10:14 AM 50.8220 23.0820 311° West 423 487 38,000 -1,588 Descending FlightAware
Mon 05:10:46 AM 50.8630 23.0080 311° West 427 491 36,800 -2,382 Descending FlightAware
Mon 05:11:22 AM 50.9070 22.9270 311° West 423 487 35,300 -2,559 Descending FlightAware
Mon 05:11:54 AM 50.9510 22.8490 312° West 420 483 33,900 -2,417 Descending FlightAware
Mon 05:12:34 AM 51.0010 22.7570 311° West 416 479 32,400 -2,167 Descending FlightAware
Mon 05:13:06 AM 51.0410 22.6840 311° West 410 472 31,300 -1,941 Descending FlightAware
Mon 05:13:42 AM 51.0860 22.6010 311° West 404 465 30,200 -1,886 Descending FlightAware
Mon 05:14:16 AM 51.1270 22.5260 311° West 400 460 29,100 -1,913 Descending FlightAware
Mon 05:14:51 AM 51.1680 22.4500 311° West 395 455 28,000 -1,800 Descending FlightAware
Mon 05:15:26 AM 51.2080 22.3760 311° West 391 450 27,000 -1,791 Descending FlightAware
Mon 05:15:58 AM 51.2450 22.3060 310° West 387 445 26,000 -1,971 Descending FlightAware
Mon 05:16:36 AM 51.2920 22.2190 311° West 385 443 24,700 -1,946 Descending FlightAware
Mon 05:17:12 AM 51.3340 22.1410 311° West 383 441 23,600 -1,750 Descending FlightAware
Mon 05:17:48 AM 51.3740 22.0650 310° West 380 437 22,600 -1,714 Descending FlightAware
Mon 05:18:22 AM 51.4160 21.9980 315° West 376 433 21,600 -1,800 Descending FlightAware
Mon 05:18:58 AM 51.4660 21.9380 323° Northwest 373 429 20,500 -1,800 Descending FlightAware
Mon 05:19:32 AM 51.5140 21.8900 328° Northwest 369 425 19,500 -1,818 Descending FlightAware
Mon 05:20:04 AM 51.5570 21.8370 323° Northwest 365 420 18,500 -1,886 Descending FlightAware
Mon 05:20:42 AM 51.6080 21.7740 323° Northwest 360 414 17,300 -1,833 Descending FlightAware
Mon 05:21:16 AM 51.6530 21.7200 323° Northwest 354 407 16,300 -1,714 Descending FlightAware
Mon 05:21:52 AM 51.6980 21.6630 322° Northwest 350 403 15,300 -1,629 Descending FlightAware
Mon 05:22:26 AM 51.7440 21.6080 323° Northwest 342 394 14,400 -1,565 Descending FlightAware
Mon 05:23:01 AM 51.7850 21.5560 322° Northwest 341 392 13,500 -1,500 Descending FlightAware
Mon 05:23:38 AM 51.8320 21.4980 323° Northwest 337 388 12,600 -1,233 Descending FlightAware
Mon 05:24:14 AM 51.8750 21.4440 322° Northwest 333 383 12,000 -985 Descending FlightAware
Mon 05:24:45 AM 51.9140 21.3960 323° Northwest 334 384 11,500 -806 Descending FlightAware
Mon 05:25:21 AM 51.9590 21.3400 323° Northwest 332 382 11,100 -833 Descending FlightAware
Mon 05:25:57 AM 52.0030 21.2850 322° Northwest 329 379 10,500 -857 Descending FlightAware
Mon 05:26:31 AM 52.0420 21.2360 322° Northwest 312 359 10,100 -656 Descending FlightAware
Mon 05:27:01 AM 52.0753 21.1942 322° Northwest 297 342 9,800 -600 Descending FlightAware
Mon 05:27:21 AM 52.0960 21.1679 322° Northwest 286 329 9,600 -750 Descending FlightAware
Mon 05:27:41 AM 52.1168 21.1417 322° Northwest 282 325 9,300 -1,105 Descending FlightAware
Mon 05:27:59 AM 52.1353 21.1183 322° Northwest 281 323 8,900 -1,043 Descending FlightAware
Mon 05:28:27 AM 52.1395 21.1131 322° Northwest 267 307 8,500 -667 Descending FlightAware
Mon 05:28:44 AM 52.1780 21.0644 322° Northwest 255 293 8,400 -450 Descending FlightAware
Mon 05:29:07 AM 52.2008 21.0355 322° Northwest 247 284 8,200 -808 Descending FlightAware
Mon 05:29:36 AM 52.2179 21.0138 322° Northwest 247 284 7,700 -960 Descending FlightAware
Mon 05:29:57 AM 52.2432 20.9817 322° Northwest 247 284 7,400 -1,024 Descending FlightAware
Mon 05:30:17 AM 52.2587 20.9596 319° Northwest 250 288 7,000 -667 Descending FlightAware
Mon 05:30:42 AM 52.2698 20.9213 295° West 249 287 6,900 -261 Descending FlightAware
Mon 05:31:03 AM 52.2805 20.8827 294° West 248 285 6,800 -146 Descending FlightAware
Mon 05:31:23 AM 52.2924 20.8411 295° West 249 287 6,800  Level FlightAware
Mon 05:32:03 AM 52.3106 20.7770 295° West 250 288 6,800  Level FlightAware
Mon 05:32:23 AM 52.3218 20.7368 295° West 250 288 6,800  Level FlightAware
Mon 05:33:01 AM 52.3400 20.6710 294° West 251 289 6,800  Level FlightAware
Mon 05:33:25 AM 52.3510 20.6300 294° West 250 288 6,800  Level FlightAware
Mon 05:33:37 AM 52.3570 20.6100 296° West 250 288 6,800  Level FlightAware
Mon 05:34:01 AM 52.3680 20.5690 294° West 243 280 6,800  Level FlightAware
Mon 05:34:09 AM 52.3700 20.5560 284° West 242 278 6,800 -462 Level FlightAware
Mon 05:34:14 AM 52.3710 20.5470 280° West 241 277 6,700 -1,111 Descending FlightAware
Mon 05:34:36 AM 52.3610 20.5110 246° West 238 274 6,300 -923 Descending FlightAware
Mon 05:34:40 AM 52.3580 20.5070 219° Southwest 236 272 6,300 -500 Level FlightAware
Mon 05:34:48 AM 52.3510 20.5000 211° Southwest 233 268 6,200 -1,071 Descending FlightAware
Mon 05:35:08 AM 52.3300 20.4860 202° Southwest 231 266 5,800 -923 Descending FlightAware
Mon 05:35:14 AM 52.3250 20.4850 187° South 228 262 5,800 -414 Level FlightAware
Mon 05:35:37 AM 52.3040 20.5020 154° Southeast 218 251 5,600 -545 Descending FlightAware
Mon 05:35:58 AM 52.2890 20.5280 133° Southeast 211 243 5,400 -585 Descending FlightAware
Mon 05:36:18 AM 52.2810 20.5540 117° Southeast 201 231 5,200 -500 Descending FlightAware
Mon 05:36:34 AM 52.2750 20.5760 114° Southeast 192 221 5,100 -500 Descending FlightAware
Mon 05:36:54 AM 52.2680 20.6020 114° Southeast 183 211 4,900 -857 Descending FlightAware
Mon 05:37:16 AM 52.2600 20.6290 116° Southeast 184 212 4,500 -1,143 Descending FlightAware
Mon 05:37:36 AM 52.2530 20.6550 114° Southeast 185 213 4,100 -1,000 Descending FlightAware
Mon 05:37:52 AM 52.2470 20.6750 116° Southeast 183 211 3,900 -1,161 Descending FlightAware
Mon 05:38:07 AM 52.2421 20.6931 114° Southeast 184 212 3,500 -1,149 Descending FlightAware
Mon 05:38:39 AM 52.2307 20.7342 114° Southeast 181 208 3,000 -952 Descending FlightAware
Mon 05:39:10 AM 52.2200 20.7720 115° Southeast 175 201 2,500 -941 Descending FlightAware
Mon 05:39:30 AM 52.2140 20.7960 112° Southeast 163 188 2,200 -900 Descending FlightAware
Mon 05:39:50 AM 52.2080 20.8170 115° Southeast 151 174 1,900 -818 Descending FlightAware
Mon 05:40:14 AM 52.2007 20.8419 115° Southeast 153 176 1,600 -750 Descending FlightAware
Mon 05:40:46 AM 52.1930 20.8690 115° Southeast 134 154 1,200 -692 Descending FlightAware
Mon 05:41:06 AM 52.1870 20.8900 115° Southeast 135 155 1,000 -682 Descending FlightAware
Mon 05:41:30 AM 52.1810 20.9110 115° Southeast 134 154 700 -818 Descending FlightAware
Mon 05:41:50 AM 52.1760 20.9300 113° Southeast 130 150 400 -621 Descending FlightAware
Mon 05:41:59 AM 52.1740 20.9370 115° Southeast 132 152 400  Level FlightAware
Mon 05:42:26 AM 52.1670 20.9610 115° Southeast 92 106 -889 Descending FlightAware

Login

Don't have an account? Register now (free) for customized features, flight alerts, and more!